createdAt,value
2022-10-22T00:00:06.548Z,45.74
2022-10-22T00:01:06.548Z,45.49
2022-10-22T00:02:06.572Z,45.69
2022-10-22T00:03:06.622Z,47.95
2022-10-22T00:04:06.571Z,47.32
2022-10-22T00:05:06.555Z,46.82
2022-10-22T00:06:06.525Z,46.03
2022-10-22T00:07:06.519Z,48.23
2022-10-22T00:08:06.546Z,50.58
2022-10-22T00:09:06.569Z,47.07
2022-10-22T00:10:06.537Z,48.02
2022-10-22T00:11:06.458Z,48.09
2022-10-22T00:12:06.510Z,49.80
2022-10-22T00:13:06.479Z,46.40
2022-10-22T00:14:06.438Z,47.94
2022-10-22T00:15:06.432Z,47.78
2022-10-22T00:16:06.441Z,47.57
2022-10-22T00:17:10.600Z,49.16
2022-10-22T00:18:07.424Z,46.36
2022-10-22T00:19:06.392Z,48.02
2022-10-22T00:20:06.413Z,45.92
2022-10-22T00:21:06.417Z,48.22
2022-10-22T00:22:06.413Z,45.56
2022-10-22T00:23:06.378Z,45.85
2022-10-22T00:24:06.365Z,47.47
2022-10-22T00:25:06.366Z,47.90
2022-10-22T00:26:06.381Z,46.70
2022-10-22T00:27:06.390Z,48.89
2022-10-22T00:28:06.364Z,48.08
2022-10-22T00:29:06.336Z,46.05
2022-10-22T00:30:06.307Z,47.41
2022-10-22T00:31:06.306Z,45.71
2022-10-22T00:32:06.311Z,45.66
2022-10-22T00:33:06.368Z,48.15
2022-10-22T00:34:06.413Z,49.41
2022-10-22T00:35:06.264Z,46.72
2022-10-22T00:36:06.280Z,45.63
2022-10-22T00:37:06.260Z,45.64
2022-10-22T00:38:06.282Z,45.85
2022-10-22T00:39:06.287Z,49.11
2022-10-22T00:40:06.225Z,46.86
2022-10-22T00:41:06.245Z,46.41
2022-10-22T00:42:06.254Z,46.00
2022-10-22T00:43:06.226Z,46.04
2022-10-22T00:44:06.228Z,45.70
2022-10-22T00:45:06.197Z,47.01
2022-10-22T00:46:06.249Z,46.13
2022-10-22T00:47:06.192Z,49.18
2022-10-22T00:48:06.179Z,46.17
2022-10-22T00:49:06.531Z,46.84
2022-10-22T00:50:06.373Z,47.73
2022-10-22T00:51:06.354Z,52.09
2022-10-22T00:52:06.161Z,47.22
2022-10-22T00:53:06.133Z,48.00
2022-10-22T00:54:06.126Z,46.70
2022-10-22T00:55:06.107Z,45.65
2022-10-22T00:56:06.139Z,45.64
2022-10-22T00:57:06.121Z,49.47
2022-10-22T00:58:06.098Z,46.10
2022-10-22T00:59:06.157Z,46.11
2022-10-22T01:00:06.392Z,46.99
2022-10-22T01:01:06.158Z,45.82
2022-10-22T01:02:06.221Z,55.92
2022-10-22T01:03:06.064Z,46.92
2022-10-22T01:04:06.203Z,46.25
2022-10-22T01:05:06.037Z,47.87
2022-10-22T01:06:06.030Z,45.67
2022-10-22T01:07:06.046Z,45.68
2022-10-22T01:08:06.079Z,45.61
2022-10-22T01:09:06.123Z,46.00
2022-10-22T01:10:05.999Z,48.80
2022-10-22T01:11:05.994Z,46.81
2022-10-22T01:12:05.991Z,47.06
2022-10-22T01:13:05.962Z,45.63
2022-10-22T01:14:05.966Z,47.57
2022-10-22T01:15:05.976Z,45.64
2022-10-22T01:16:05.957Z,45.65
2022-10-22T01:17:05.941Z,47.67
2022-10-22T01:18:05.961Z,47.19
2022-10-22T01:19:05.940Z,45.75
2022-10-22T01:20:05.916Z,45.62
2022-10-22T01:21:05.925Z,45.66
2022-10-22T01:22:05.917Z,46.60
2022-10-22T01:23:05.928Z,48.41
2022-10-22T01:24:05.941Z,47.62
2022-10-22T01:25:05.926Z,45.76
2022-10-22T01:26:05.892Z,45.77
2022-10-22T01:27:05.888Z,45.76
2022-10-22T01:28:05.865Z,47.05
2022-10-22T01:29:05.874Z,45.77
2022-10-22T01:30:05.879Z,45.89
2022-10-22T01:31:05.831Z,46.89
2022-10-22T01:32:05.820Z,45.89
2022-10-22T01:33:05.833Z,47.63
2022-10-22T01:34:05.817Z,45.75
2022-10-22T01:35:05.873Z,47.27
2022-10-22T01:36:05.824Z,47.85
2022-10-22T01:37:05.817Z,46.50
2022-10-22T01:38:05.779Z,46.23
2022-10-22T01:39:05.781Z,46.91
2022-10-22T01:40:05.803Z,47.63
2022-10-22T01:41:05.785Z,48.12
2022-10-22T01:42:05.746Z,47.73
2022-10-22T01:43:05.752Z,49.14
2022-10-22T01:44:05.746Z,49.53
2022-10-22T01:45:05.759Z,48.49
2022-10-22T01:46:05.773Z,49.24
2022-10-22T01:47:05.721Z,49.89
2022-10-22T01:48:05.731Z,48.20
2022-10-22T01:49:05.716Z,48.32
2022-10-22T01:50:05.709Z,49.55
2022-10-22T01:51:05.718Z,47.59
2022-10-22T01:52:05.679Z,47.34
2022-10-22T01:53:05.710Z,47.02
2022-10-22T01:54:05.738Z,49.00
2022-10-22T01:55:05.669Z,49.69
2022-10-22T01:56:05.671Z,46.16
2022-10-22T01:57:05.667Z,45.76
2022-10-22T01:58:05.666Z,46.58
2022-10-22T01:59:05.670Z,46.34
2022-10-22T02:00:05.636Z,48.75
2022-10-22T02:01:05.706Z,50.69
2022-10-22T02:02:05.636Z,47.25
2022-10-22T02:03:05.616Z,50.48
2022-10-22T02:04:05.623Z,47.63
2022-10-22T02:05:05.610Z,46.78
2022-10-22T02:06:05.577Z,45.99
2022-10-22T02:07:05.570Z,48.26
2022-10-22T02:08:05.588Z,51.00
2022-10-22T02:09:05.578Z,47.52
2022-10-22T02:10:05.573Z,49.46
2022-10-22T02:11:05.544Z,50.07
2022-10-22T02:13:05.517Z,48.26
2022-10-22T02:14:05.518Z,46.53
2022-10-22T02:15:05.537Z,47.57
2022-10-22T02:16:05.495Z,47.14
2022-10-22T02:17:05.514Z,46.58
2022-10-22T02:18:05.478Z,46.51
2022-10-22T02:19:05.474Z,47.68
2022-10-22T02:20:05.509Z,47.37
2022-10-22T02:21:05.603Z,46.59
2022-10-22T02:22:05.445Z,48.40
2022-10-22T02:23:05.504Z,49.28
2022-10-22T02:24:05.430Z,46.71
2022-10-22T02:25:05.442Z,48.20
2022-10-22T02:26:05.401Z,47.24
2022-10-22T02:27:05.431Z,47.11
2022-10-22T02:28:05.431Z,47.75
2022-10-22T02:29:05.385Z,49.40
2022-10-22T02:30:05.466Z,48.50
2022-10-22T02:31:05.365Z,46.50
2022-10-22T02:32:05.407Z,48.74
2022-10-22T02:33:05.357Z,47.51
2022-10-22T02:34:05.370Z,45.97
2022-10-22T02:35:05.361Z,46.03
2022-10-22T02:36:05.342Z,46.12
2022-10-22T02:37:05.336Z,46.38
2022-10-22T02:38:05.350Z,48.08
2022-10-22T02:39:05.364Z,47.05
2022-10-22T02:40:05.298Z,47.49
2022-10-22T02:41:05.291Z,46.69
2022-10-22T02:42:05.284Z,48.37
2022-10-22T02:43:05.321Z,47.48
2022-10-22T02:44:05.281Z,50.10
2022-10-22T02:45:05.281Z,46.32
2022-10-22T02:46:05.250Z,46.21
2022-10-22T02:47:05.254Z,46.42
2022-10-22T02:48:05.268Z,46.52
2022-10-22T02:49:05.299Z,46.89
2022-10-22T02:50:07.901Z,49.22
2022-10-22T02:51:06.208Z,47.83
2022-10-22T02:52:05.224Z,46.42
2022-10-22T02:53:05.244Z,49.39
2022-10-22T02:54:05.228Z,46.09
2022-10-22T02:55:05.217Z,47.83
2022-10-22T02:56:05.189Z,48.71
2022-10-22T02:57:05.230Z,49.82
2022-10-22T02:58:05.186Z,48.24
2022-10-22T02:59:05.177Z,48.66
2022-10-22T03:00:05.182Z,51.64
2022-10-22T03:01:05.265Z,47.89
2022-10-22T03:02:05.140Z,48.50
2022-10-22T03:03:05.132Z,47.77
2022-10-22T03:04:05.187Z,47.95
2022-10-22T03:05:05.176Z,49.37
2022-10-22T03:06:05.115Z,47.77
2022-10-22T03:07:05.109Z,47.17
2022-10-22T03:08:05.087Z,49.90
2022-10-22T03:09:05.104Z,48.18
2022-10-22T03:10:05.165Z,49.80
2022-10-22T03:11:05.117Z,47.53
2022-10-22T03:12:05.059Z,48.50
2022-10-22T03:13:05.061Z,49.33
2022-10-22T03:14:05.039Z,47.90
2022-10-22T03:15:05.043Z,47.80
2022-10-22T03:16:05.018Z,47.86
2022-10-22T03:17:05.022Z,49.87
2022-10-22T03:18:05.011Z,49.42
2022-10-22T03:19:05.032Z,49.81
2022-10-22T03:20:04.999Z,48.35
2022-10-22T03:21:04.999Z,48.87
2022-10-22T03:22:04.977Z,48.91
2022-10-22T03:23:04.966Z,47.99
2022-10-22T03:24:04.995Z,49.67
2022-10-22T03:25:05.026Z,49.25
2022-10-22T03:26:05.043Z,51.20
2022-10-22T03:27:04.978Z,49.17
2022-10-22T03:28:04.930Z,49.38
2022-10-22T03:29:04.925Z,47.33
2022-10-22T03:30:04.915Z,49.85
2022-10-22T03:31:04.951Z,51.44
2022-10-22T03:32:04.917Z,49.60
2022-10-22T03:33:04.900Z,46.60
2022-10-22T03:34:04.971Z,48.55
2022-10-22T03:35:04.869Z,51.70
2022-10-22T03:36:05.001Z,49.83
2022-10-22T03:37:04.880Z,48.31
2022-10-22T03:38:04.893Z,46.13
2022-10-22T03:39:04.870Z,51.56
2022-10-22T03:40:04.871Z,50.41
2022-10-22T03:41:04.834Z,48.81
2022-10-22T03:42:04.831Z,46.34
2022-10-22T03:43:04.817Z,46.77
2022-10-22T03:44:04.822Z,47.58
2022-10-22T03:45:04.808Z,48.43
2022-10-22T03:46:04.812Z,46.84
2022-10-22T03:47:04.790Z,47.99
2022-10-22T03:48:05.803Z,47.68
2022-10-22T03:49:04.798Z,52.20
2022-10-22T03:50:04.884Z,50.02
2022-10-22T03:51:05.813Z,47.53
2022-10-22T03:52:04.768Z,46.00
2022-10-22T03:53:04.743Z,46.55
2022-10-22T03:54:04.773Z,47.33
2022-10-22T03:55:04.898Z,46.71
2022-10-22T03:56:04.738Z,48.17
2022-10-22T03:57:04.721Z,50.95
2022-10-22T03:58:04.694Z,47.27
2022-10-22T03:59:04.691Z,48.15
2022-10-22T04:00:04.690Z,47.22
2022-10-22T04:01:04.736Z,52.52
2022-10-22T04:02:04.696Z,50.96
2022-10-22T04:03:04.667Z,51.71
2022-10-22T04:04:04.652Z,46.75
2022-10-22T04:05:04.733Z,50.19
2022-10-22T04:06:04.658Z,47.05
2022-10-22T04:07:04.672Z,46.79
2022-10-22T04:08:04.632Z,48.71
2022-10-22T04:09:04.666Z,47.66
2022-10-22T04:10:04.615Z,47.95
2022-10-22T04:11:04.601Z,48.04
2022-10-22T04:12:04.596Z,48.53
2022-10-22T04:13:04.630Z,46.68
2022-10-22T04:14:04.617Z,50.62
2022-10-22T04:15:04.573Z,49.59
2022-10-22T04:16:05.567Z,50.38
2022-10-22T04:17:04.575Z,50.61
2022-10-22T04:18:04.599Z,49.60
2022-10-22T04:19:04.548Z,47.08
2022-10-22T04:20:04.539Z,51.06
2022-10-22T04:21:04.554Z,52.83
2022-10-22T04:22:04.546Z,55.39
2022-10-22T04:23:04.603Z,53.60
2022-10-22T04:24:04.509Z,53.34
2022-10-22T04:25:04.511Z,53.15
2022-10-22T04:26:04.492Z,49.96
2022-10-22T04:27:04.484Z,50.91
2022-10-22T04:28:04.499Z,48.88
2022-10-22T04:29:04.474Z,51.11
2022-10-22T04:30:04.475Z,47.51
2022-10-22T04:31:04.456Z,50.96
2022-10-22T04:32:04.450Z,47.01
2022-10-22T04:33:04.445Z,48.44
2022-10-22T04:34:04.455Z,50.33
2022-10-22T04:35:04.438Z,51.24
2022-10-22T04:36:04.419Z,51.36
2022-10-22T04:37:04.420Z,48.95
2022-10-22T04:38:04.463Z,51.37
2022-10-22T04:39:04.437Z,52.11
2022-10-22T04:40:04.536Z,50.70
2022-10-22T04:41:04.377Z,49.60
2022-10-22T04:42:04.366Z,51.33
2022-10-22T04:43:04.352Z,49.19
2022-10-22T04:44:04.400Z,50.05
2022-10-22T04:45:04.375Z,50.17
2022-10-22T04:46:04.340Z,54.30
2022-10-22T04:47:04.342Z,50.82
2022-10-22T04:48:04.339Z,50.51
2022-10-22T04:49:04.363Z,51.44
2022-10-22T04:50:04.309Z,48.69
2022-10-22T04:51:04.330Z,48.37
2022-10-22T04:52:04.387Z,50.69
2022-10-22T04:53:04.369Z,46.67
2022-10-22T04:54:04.305Z,49.44
2022-10-22T04:55:04.327Z,49.42
2022-10-22T04:56:04.249Z,52.31
2022-10-22T04:57:04.246Z,48.11
2022-10-22T04:58:04.361Z,50.75
2022-10-22T04:59:05.240Z,50.47
2022-10-22T05:00:04.316Z,55.01
2022-10-22T05:01:04.284Z,52.01
2022-10-22T05:02:04.258Z,51.67
2022-10-22T05:03:04.255Z,49.31
2022-10-22T05:04:04.218Z,49.45
2022-10-22T05:05:04.191Z,49.03
2022-10-22T05:06:04.234Z,48.32
2022-10-22T05:07:04.208Z,50.24
2022-10-22T05:08:04.205Z,48.63
2022-10-22T05:09:04.223Z,49.86
2022-10-22T05:10:04.158Z,49.75
2022-10-22T05:11:04.150Z,48.21
2022-10-22T05:12:04.180Z,50.44
2022-10-22T05:13:04.146Z,48.98
2022-10-22T05:14:04.119Z,49.97
2022-10-22T05:15:04.115Z,50.54
2022-10-22T05:16:04.174Z,52.24
2022-10-22T05:17:04.148Z,49.58
2022-10-22T05:18:04.110Z,50.29
2022-10-22T05:19:04.114Z,48.59
2022-10-22T05:20:04.085Z,50.41
2022-10-22T05:21:04.098Z,49.33
2022-10-22T05:22:04.151Z,50.30
2022-10-22T05:23:04.217Z,52.37
2022-10-22T05:24:04.057Z,50.42
2022-10-22T05:25:04.050Z,53.78
2022-10-22T05:26:04.059Z,51.88
2022-10-22T05:27:04.056Z,52.97
2022-10-22T05:28:04.073Z,50.59
2022-10-22T05:29:04.863Z,49.91
2022-10-22T05:30:04.018Z,50.20
2022-10-22T05:31:04.021Z,48.55
2022-10-22T05:32:03.999Z,55.04
2022-10-22T05:33:04.013Z,51.79
2022-10-22T05:34:04.106Z,52.64
2022-10-22T05:35:03.988Z,53.51
2022-10-22T05:36:03.972Z,51.58
2022-10-22T05:37:03.947Z,51.22
2022-10-22T05:38:04.007Z,50.00
2022-10-22T05:39:03.979Z,51.78
2022-10-22T05:40:18.996Z,54.21
2022-10-22T05:41:05.929Z,53.16
2022-10-22T05:42:03.953Z,53.99
2022-10-22T05:43:03.958Z,53.52
2022-10-22T05:44:03.898Z,48.71
2022-10-22T05:45:03.928Z,49.13
2022-10-22T05:46:03.899Z,53.11
2022-10-22T05:47:03.895Z,52.55
2022-10-22T05:48:03.978Z,52.03
2022-10-22T05:49:03.887Z,52.04
2022-10-22T05:50:03.983Z,51.57
2022-10-22T05:51:03.857Z,53.35
2022-10-22T05:52:03.858Z,51.93
2022-10-22T05:53:03.827Z,54.39
2022-10-22T05:54:03.848Z,53.93
2022-10-22T05:55:03.893Z,52.09
2022-10-22T05:56:03.827Z,54.68
2022-10-22T05:57:03.797Z,53.35
2022-10-22T05:58:03.794Z,52.28
2022-10-22T06:00:03.819Z,53.47
2022-10-22T06:01:03.768Z,55.57
2022-10-22T06:02:03.795Z,58.45
2022-10-22T06:03:03.773Z,58.80
2022-10-22T06:04:03.800Z,59.42
2022-10-22T06:05:03.738Z,55.54
2022-10-22T06:06:03.805Z,51.48
2022-10-22T06:07:03.816Z,50.37
2022-10-22T06:08:03.720Z,53.51
2022-10-22T06:09:03.769Z,53.85
2022-10-22T06:10:03.733Z,55.49
2022-10-22T06:11:03.694Z,52.85
2022-10-22T06:12:03.752Z,52.42
2022-10-22T06:13:03.688Z,55.37
2022-10-22T06:14:03.683Z,52.90
2022-10-22T06:15:03.663Z,51.64
2022-10-22T06:16:04.648Z,52.32
2022-10-22T06:17:03.682Z,53.03
2022-10-22T06:18:03.648Z,53.82
2022-10-22T06:19:03.654Z,54.84
2022-10-22T06:21:03.620Z,54.81
2022-10-22T06:22:03.619Z,55.06
2022-10-22T06:23:03.603Z,51.65
2022-10-22T06:24:03.620Z,51.56
2022-10-22T06:25:03.585Z,52.13
2022-10-22T06:26:03.606Z,52.22
2022-10-22T06:27:03.576Z,52.05
2022-10-22T06:28:03.599Z,52.59
2022-10-22T06:29:03.674Z,54.44
2022-10-22T06:30:03.590Z,55.35
2022-10-22T06:31:03.562Z,50.75
2022-10-22T06:32:03.591Z,50.84
2022-10-22T06:33:03.524Z,51.99
2022-10-22T06:34:03.517Z,52.53
2022-10-22T06:35:03.527Z,51.57
2022-10-22T06:36:06.696Z,52.86
2022-10-22T06:37:04.531Z,55.44
2022-10-22T06:38:03.494Z,51.44
2022-10-22T06:39:03.513Z,52.04
2022-10-22T06:40:03.523Z,55.28
2022-10-22T06:41:04.480Z,55.17
2022-10-22T06:42:03.483Z,51.11
2022-10-22T06:43:03.471Z,51.75
2022-10-22T06:44:03.450Z,53.31
2022-10-22T06:45:03.539Z,52.29
2022-10-22T06:46:03.437Z,52.61
2022-10-22T06:47:03.438Z,52.41
2022-10-22T06:48:03.445Z,51.66
2022-10-22T06:49:03.416Z,52.73
2022-10-22T06:50:03.448Z,52.38
2022-10-22T06:51:04.435Z,52.47
2022-10-22T06:52:03.419Z,53.21
2022-10-22T06:53:03.398Z,53.39
2022-10-22T06:54:03.392Z,54.37
2022-10-22T06:55:03.363Z,54.87
2022-10-22T06:56:03.405Z,55.26
2022-10-22T06:57:03.379Z,53.78
2022-10-22T06:58:03.405Z,52.96
2022-10-22T06:59:03.342Z,52.24
2022-10-22T07:00:03.395Z,53.39
2022-10-22T07:01:03.391Z,55.32
2022-10-22T07:02:03.307Z,55.06
2022-10-22T07:03:03.327Z,53.99
2022-10-22T07:04:03.450Z,54.22
2022-10-22T07:05:03.282Z,52.97
2022-10-22T07:06:03.351Z,52.11
2022-10-22T07:07:03.275Z,55.25
2022-10-22T07:08:03.280Z,54.03
2022-10-22T07:09:03.397Z,53.19
2022-10-22T07:10:03.254Z,50.62
2022-10-22T07:11:03.250Z,51.64
2022-10-22T07:12:03.291Z,54.15
2022-10-22T07:13:03.219Z,53.14
2022-10-22T07:14:03.209Z,55.22
2022-10-22T07:15:03.297Z,52.81
2022-10-22T07:16:03.223Z,52.72
2022-10-22T07:17:03.242Z,55.44
2022-10-22T07:18:03.209Z,54.77
2022-10-22T07:19:03.168Z,53.53
2022-10-22T07:20:04.170Z,54.63
2022-10-22T07:21:03.162Z,55.78
2022-10-22T07:22:03.185Z,53.77
2022-10-22T07:23:03.148Z,54.90
2022-10-22T07:24:03.153Z,52.80
2022-10-22T07:25:06.636Z,56.11
2022-10-22T07:26:04.157Z,55.63
2022-10-22T07:27:04.343Z,52.30
2022-10-22T07:28:03.141Z,53.03
2022-10-22T07:29:03.134Z,54.33
2022-10-22T07:30:03.127Z,54.38
2022-10-22T07:31:03.112Z,54.39
2022-10-22T07:32:03.143Z,56.08
2022-10-22T07:33:03.084Z,53.02
2022-10-22T07:34:03.096Z,56.70
2022-10-22T07:35:03.056Z,56.14
2022-10-22T07:36:03.045Z,56.71
2022-10-22T07:37:03.051Z,56.99
2022-10-22T07:38:03.050Z,52.99
2022-10-22T07:39:03.059Z,52.51
2022-10-22T07:40:04.146Z,52.51
2022-10-22T07:41:03.035Z,53.23
2022-10-22T07:42:03.049Z,55.30
2022-10-22T07:43:03.093Z,55.82
2022-10-22T07:44:03.049Z,55.09
2022-10-22T07:45:03.010Z,58.00
2022-10-22T07:46:02.969Z,54.24
2022-10-22T07:47:02.973Z,57.69
2022-10-22T07:48:02.950Z,58.67
2022-10-22T07:49:02.940Z,58.33
2022-10-22T07:50:02.976Z,59.00
2022-10-22T07:51:02.937Z,58.24
2022-10-22T07:52:02.912Z,54.38
2022-10-22T07:53:02.923Z,57.12
2022-10-22T07:54:02.928Z,57.35
2022-10-22T07:55:02.957Z,56.75
2022-10-22T07:56:02.887Z,56.72
2022-10-22T07:57:02.889Z,57.44
2022-10-22T07:58:02.934Z,56.96
2022-10-22T08:00:02.921Z,54.95
2022-10-22T08:01:02.968Z,56.47
2022-10-22T08:02:02.850Z,56.18
2022-10-22T08:03:02.846Z,57.05
2022-10-22T08:04:02.839Z,56.44
2022-10-22T08:05:02.824Z,56.94
2022-10-22T08:06:02.912Z,57.13
2022-10-22T08:07:02.839Z,62.86
2022-10-22T08:08:02.818Z,62.74
2022-10-22T08:09:02.875Z,60.27
2022-10-22T08:10:02.838Z,61.85
2022-10-22T08:11:02.857Z,59.64
2022-10-22T08:12:02.891Z,60.58
2022-10-22T08:13:02.876Z,60.05
2022-10-22T08:14:02.769Z,57.92
2022-10-22T08:15:02.804Z,56.89
2022-10-22T08:16:02.749Z,57.59
2022-10-22T08:17:02.751Z,54.53
2022-10-22T08:18:02.742Z,53.22
2022-10-22T08:19:02.745Z,51.33
2022-10-22T08:20:02.747Z,54.07
2022-10-22T08:21:02.725Z,54.06
2022-10-22T08:22:02.696Z,52.72
2022-10-22T08:23:02.682Z,55.00
2022-10-22T08:24:02.740Z,54.77
2022-10-22T08:25:02.677Z,53.77
2022-10-22T08:26:02.681Z,51.28
2022-10-22T08:27:02.687Z,52.82
2022-10-22T08:28:02.682Z,53.16
2022-10-22T08:29:02.667Z,52.20
2022-10-22T08:30:02.633Z,49.02
2022-10-22T08:31:02.737Z,51.24
2022-10-22T08:32:02.632Z,53.17
2022-10-22T08:33:02.608Z,52.70
2022-10-22T08:34:02.658Z,54.02
2022-10-22T08:35:02.624Z,53.26
2022-10-22T08:36:02.788Z,53.81
2022-10-22T08:37:02.637Z,53.57
2022-10-22T08:38:02.570Z,55.34
2022-10-22T08:39:02.612Z,54.20
2022-10-22T08:40:02.568Z,53.69
2022-10-22T08:41:02.584Z,53.00
2022-10-22T08:42:02.560Z,54.06
2022-10-22T08:43:02.565Z,54.27
2022-10-22T08:44:02.589Z,51.02
2022-10-22T08:45:02.563Z,53.45
2022-10-22T08:46:02.570Z,53.42
2022-10-22T08:47:02.538Z,55.36
2022-10-22T08:48:02.535Z,52.98
2022-10-22T08:49:02.562Z,51.68
2022-10-22T08:50:02.537Z,52.23
2022-10-22T08:51:02.484Z,52.21
2022-10-22T08:52:02.495Z,52.95
2022-10-22T08:53:02.476Z,54.54
2022-10-22T08:54:02.498Z,55.21
2022-10-22T08:55:02.491Z,53.11
2022-10-22T08:56:02.489Z,51.40
2022-10-22T08:57:02.462Z,54.29
2022-10-22T08:58:02.438Z,54.01
2022-10-22T08:59:02.431Z,54.32
2022-10-22T09:00:02.429Z,54.51
2022-10-22T09:01:02.445Z,51.28
2022-10-22T09:02:02.456Z,56.80
2022-10-22T09:03:02.449Z,58.66
2022-10-22T09:04:02.401Z,58.73
2022-10-22T09:05:02.465Z,55.29
2022-10-22T09:06:02.428Z,53.09
2022-10-22T09:07:02.434Z,50.63
2022-10-22T09:08:02.446Z,52.32
2022-10-22T09:09:02.451Z,54.02
2022-10-22T09:10:02.411Z,51.85
2022-10-22T09:11:02.372Z,53.55
2022-10-22T09:12:02.345Z,54.20
2022-10-22T09:13:02.371Z,53.78
2022-10-22T09:14:02.353Z,54.63
2022-10-22T09:15:02.338Z,53.64
2022-10-22T09:16:02.323Z,53.82
2022-10-22T09:17:02.313Z,53.53
2022-10-22T09:18:02.332Z,49.29
2022-10-22T09:19:02.300Z,52.44
2022-10-22T09:20:02.295Z,51.60
2022-10-22T09:21:02.333Z,56.82
2022-10-22T09:22:02.318Z,54.88
2022-10-22T09:23:02.307Z,54.08
2022-10-22T09:24:02.282Z,54.80
2022-10-22T09:25:02.277Z,53.66
2022-10-22T09:26:02.303Z,55.04
2022-10-22T09:27:02.245Z,53.42
2022-10-22T09:28:02.237Z,54.17
2022-10-22T09:29:02.265Z,55.89
2022-10-22T09:30:02.260Z,52.63
2022-10-22T09:31:02.243Z,54.47
2022-10-22T09:32:02.216Z,56.51
2022-10-22T09:33:02.200Z,52.88
2022-10-22T09:34:02.231Z,55.11
2022-10-22T09:35:02.278Z,54.35
2022-10-22T09:36:02.203Z,51.67
2022-10-22T09:37:02.190Z,55.47
2022-10-22T09:38:02.180Z,54.40
2022-10-22T09:39:02.236Z,53.95
2022-10-22T09:40:02.160Z,54.09
2022-10-22T09:41:02.164Z,53.72
2022-10-22T09:42:02.146Z,55.56
2022-10-22T09:43:02.134Z,53.80
2022-10-22T09:44:02.155Z,54.59
2022-10-22T09:45:02.270Z,54.39
2022-10-22T09:46:02.116Z,55.40
2022-10-22T09:47:02.152Z,54.95
2022-10-22T09:48:02.494Z,55.77
2022-10-22T09:49:02.247Z,54.46
2022-10-22T09:50:02.072Z,51.61
2022-10-22T09:51:02.109Z,54.63
2022-10-22T09:52:02.090Z,53.85
2022-10-22T09:53:02.084Z,53.86
2022-10-22T09:54:02.080Z,53.67
2022-10-22T09:55:02.035Z,53.72
2022-10-22T09:56:02.100Z,55.38
2022-10-22T09:57:02.046Z,55.75
2022-10-22T09:58:02.028Z,55.43
2022-10-22T09:59:02.055Z,56.14
2022-10-22T10:00:02.018Z,54.91
2022-10-22T10:01:02.083Z,54.69
2022-10-22T10:02:13.528Z,55.53
2022-10-22T10:03:04.026Z,53.65
2022-10-22T10:04:04.501Z,54.52
2022-10-22T10:05:02.996Z,54.43
2022-10-22T10:06:05.074Z,54.44
2022-10-22T10:07:01.991Z,51.73
2022-10-22T10:08:01.977Z,53.50
2022-10-22T10:09:02.034Z,55.98
2022-10-22T10:10:01.974Z,52.86
2022-10-22T10:11:01.942Z,52.49
2022-10-22T10:12:01.958Z,55.02
2022-10-22T10:13:01.950Z,54.19
2022-10-22T10:14:01.925Z,55.52
2022-10-22T10:15:01.911Z,55.62
2022-10-22T10:16:02.969Z,53.77
2022-10-22T10:17:02.032Z,55.28
2022-10-22T10:18:01.924Z,53.26
2022-10-22T10:19:01.921Z,55.95
2022-10-22T10:20:03.918Z,53.49
2022-10-22T10:21:02.033Z,52.57
2022-10-22T10:22:01.886Z,55.34
2022-10-22T10:23:01.892Z,53.41
2022-10-22T10:24:01.900Z,51.85
2022-10-22T10:25:01.883Z,52.34
2022-10-22T10:26:01.865Z,51.48
2022-10-22T10:27:01.927Z,53.26
2022-10-22T10:28:01.896Z,51.62
2022-10-22T10:29:01.857Z,49.75
2022-10-22T10:30:01.892Z,52.13
2022-10-22T10:31:01.838Z,49.73
2022-10-22T10:32:01.927Z,50.47
2022-10-22T10:33:01.870Z,54.62
2022-10-22T10:34:01.875Z,51.35
2022-10-22T10:35:01.970Z,54.39
2022-10-22T10:36:01.853Z,52.78
2022-10-22T10:37:02.080Z,52.93
2022-10-22T10:38:01.783Z,53.03
2022-10-22T10:39:01.776Z,53.40
2022-10-22T10:40:01.787Z,53.57
2022-10-22T10:41:01.773Z,52.58
2022-10-22T10:42:01.792Z,51.29
2022-10-22T10:43:01.763Z,52.50
2022-10-22T10:44:01.751Z,52.38
2022-10-22T10:45:01.753Z,50.59
2022-10-22T10:46:01.742Z,50.60
2022-10-22T10:47:01.742Z,52.69
2022-10-22T10:48:01.756Z,55.21
2022-10-22T10:49:01.711Z,54.01
2022-10-22T10:50:01.730Z,53.45
2022-10-22T10:51:01.773Z,54.06
2022-10-22T10:52:01.700Z,52.68
2022-10-22T10:53:01.738Z,53.71
2022-10-22T10:54:01.681Z,51.41
2022-10-22T10:55:01.736Z,52.63
2022-10-22T10:56:01.695Z,54.42
2022-10-22T10:57:01.659Z,53.86
2022-10-22T10:58:01.701Z,52.58
2022-10-22T10:59:01.698Z,54.52
2022-10-22T11:00:01.690Z,56.84
2022-10-22T11:01:01.734Z,55.42
2022-10-22T11:02:01.637Z,54.21
2022-10-22T11:03:01.738Z,53.84
2022-10-22T11:04:01.642Z,51.89
2022-10-22T11:05:01.643Z,54.49
2022-10-22T11:06:01.616Z,55.35
2022-10-22T11:07:11.009Z,54.69
2022-10-22T11:08:03.648Z,54.16
2022-10-22T11:09:01.673Z,53.29
2022-10-22T11:10:01.610Z,50.86
2022-10-22T11:11:01.607Z,54.24
2022-10-22T11:12:01.895Z,52.09
2022-10-22T11:13:01.619Z,54.47
2022-10-22T11:14:01.763Z,55.07
2022-10-22T11:15:01.569Z,53.79
2022-10-22T11:16:01.576Z,54.27
2022-10-22T11:17:01.586Z,55.39
2022-10-22T11:18:01.541Z,55.33
2022-10-22T11:19:01.683Z,53.24
2022-10-22T11:20:01.583Z,53.72
2022-10-22T11:21:01.529Z,56.51
2022-10-22T11:22:01.538Z,54.65
2022-10-22T11:23:18.905Z,53.44
2022-10-22T11:24:03.532Z,52.01
2022-10-22T11:25:01.673Z,53.59
2022-10-22T11:26:01.539Z,51.03
2022-10-22T11:27:01.486Z,50.29
2022-10-22T11:28:07.834Z,50.33
2022-10-22T11:29:03.477Z,54.04
2022-10-22T11:30:01.502Z,56.04
2022-10-22T11:31:01.482Z,53.10
2022-10-22T11:32:01.455Z,51.45
2022-10-22T11:33:01.455Z,53.05
2022-10-22T11:34:09.849Z,53.66
2022-10-22T11:35:02.471Z,55.11
2022-10-22T11:36:01.452Z,54.72
2022-10-22T11:37:01.430Z,52.73
2022-10-22T11:38:01.459Z,55.28
2022-10-22T11:39:01.429Z,52.13
2022-10-22T11:40:01.422Z,54.78
2022-10-22T11:41:01.445Z,54.28
2022-10-22T11:42:01.457Z,51.56
2022-10-22T11:43:01.435Z,53.76
2022-10-22T11:44:01.418Z,54.28
2022-10-22T11:45:01.513Z,50.85
2022-10-22T11:46:01.386Z,51.11
2022-10-22T11:47:01.404Z,51.45
2022-10-22T11:48:01.418Z,53.68
2022-10-22T11:49:01.491Z,57.41
2022-10-22T11:50:01.365Z,57.04
2022-10-22T11:51:01.423Z,55.47
2022-10-22T11:52:04.294Z,53.88
2022-10-22T11:53:02.434Z,53.00
2022-10-22T11:54:01.358Z,53.20
2022-10-22T11:55:01.323Z,54.78
2022-10-22T11:56:01.340Z,53.46
2022-10-22T11:57:01.327Z,55.33
2022-10-22T11:58:01.404Z,53.57
2022-10-22T11:59:01.314Z,54.57
2022-10-22T12:00:01.330Z,55.95
2022-10-22T12:01:01.308Z,55.98
2022-10-22T12:02:01.279Z,53.07
2022-10-22T12:03:01.283Z,54.27
2022-10-22T12:04:01.272Z,54.60
2022-10-22T12:05:01.330Z,55.68
2022-10-22T12:06:01.305Z,51.48
2022-10-22T12:07:01.297Z,49.33
2022-10-22T12:08:01.302Z,51.67
2022-10-22T12:09:01.449Z,54.64
2022-10-22T12:10:01.241Z,53.49
2022-10-22T12:11:01.263Z,55.27
2022-10-22T12:12:01.231Z,54.20
2022-10-22T12:13:01.329Z,53.64
2022-10-22T12:14:01.253Z,51.02
2022-10-22T12:15:01.230Z,53.15
2022-10-22T12:16:01.215Z,52.92
2022-10-22T12:17:01.251Z,53.96
2022-10-22T12:18:01.273Z,55.31
2022-10-22T12:19:01.176Z,51.55
2022-10-22T12:20:02.312Z,52.80
2022-10-22T12:21:02.165Z,53.32
2022-10-22T12:22:01.204Z,52.86
2022-10-22T12:23:01.201Z,53.61
2022-10-22T12:24:01.152Z,53.33
2022-10-22T12:25:01.134Z,51.32
2022-10-22T12:26:01.136Z,53.09
2022-10-22T12:27:01.169Z,51.68
2022-10-22T12:28:01.153Z,52.24
2022-10-22T12:29:01.124Z,52.00
2022-10-22T12:30:01.118Z,53.61
2022-10-22T12:31:01.141Z,52.51
2022-10-22T12:32:01.139Z,51.69
2022-10-22T12:33:01.113Z,51.52
2022-10-22T12:34:01.112Z,50.20
2022-10-22T12:35:01.112Z,51.20
2022-10-22T12:36:01.087Z,52.57
2022-10-22T12:37:01.080Z,51.61
2022-10-22T12:38:01.097Z,53.21
2022-10-22T12:39:01.122Z,52.20
2022-10-22T12:40:01.086Z,51.44
2022-10-22T12:41:01.053Z,52.57
2022-10-22T12:42:01.043Z,54.82
2022-10-22T12:43:01.141Z,57.51
2022-10-22T12:44:01.138Z,52.46
2022-10-22T12:45:01.024Z,49.77
2022-10-22T12:46:01.037Z,52.26
2022-10-22T12:47:01.024Z,52.61
2022-10-22T12:48:01.024Z,52.22
2022-10-22T12:49:01.043Z,54.81
2022-10-22T12:50:01.024Z,53.63
2022-10-22T12:51:00.978Z,52.00
2022-10-22T12:52:01.079Z,52.12
2022-10-22T12:53:00.965Z,52.96
2022-10-22T12:54:01.000Z,52.08
2022-10-22T12:55:00.989Z,52.00
2022-10-22T12:56:00.988Z,53.57